createdAt,value
2018-04-25T00:00:35.668Z,76.39
2018-04-25T00:01:44.500Z,76.39
2018-04-25T00:02:53.333Z,76.39
2018-04-25T00:04:02.173Z,76.86
2018-04-25T00:05:11.001Z,76.96
2018-04-25T00:06:20.111Z,76.67
2018-04-25T00:07:28.942Z,76.86
2018-04-25T00:08:38.050Z,76.86
2018-04-25T00:09:46.883Z,76.77
2018-04-25T00:10:55.718Z,76.77
2018-04-25T00:12:05.119Z,76.77
2018-04-25T00:13:13.951Z,76.96
2018-04-25T00:14:23.334Z,77.53
2018-04-25T00:15:32.167Z,77.44
2018-04-25T00:16:41.304Z,77.34
2018-04-25T00:17:50.139Z,77.62
2018-04-25T00:18:58.972Z,77.72
2018-04-25T00:20:08.081Z,77.82
2018-04-25T00:21:16.918Z,77.72
2018-04-25T00:22:25.801Z,77.82
2018-04-25T00:23:34.638Z,78.01
2018-04-25T00:24:43.470Z,77.82
2018-04-25T00:25:52.305Z,77.91
2018-04-25T00:27:01.139Z,77.91
2018-04-25T00:28:09.976Z,77.91
2018-04-25T00:29:18.815Z,77.72
2018-04-25T00:30:27.648Z,77.62
2018-04-25T00:31:36.480Z,78.3
2018-04-25T00:32:45.314Z,77.91
2018-04-25T00:33:54.401Z,78.49
2018-04-25T00:35:03.508Z,77.82
2018-04-25T00:36:12.340Z,77.72
2018-04-25T00:37:21.178Z,78.39
2018-04-25T00:38:30.291Z,78.3
2018-04-25T00:39:39.125Z,78.3
2018-04-25T00:40:48.238Z,78.39
2018-04-25T00:41:57.348Z,78.49
2018-04-25T00:43:06.458Z,78.3
2018-04-25T00:44:15.297Z,78.39
2018-04-25T00:45:24.183Z,78.49
2018-04-25T00:46:33.023Z,78.86
2018-04-25T00:47:42.131Z,78.67
2018-04-25T00:48:50.971Z,78.67
2018-04-25T00:50:00.093Z,79.15
2018-04-25T00:51:09.029Z,79.06
2018-04-25T00:52:17.864Z,79.86
2018-04-25T00:53:26.697Z,79.53
2018-04-25T00:54:35.533Z,79.63
2018-04-25T00:55:44.370Z,79.63
2018-04-25T00:56:53.302Z,79.25
2018-04-25T00:58:02.136Z,79.67
2018-04-25T00:59:10.967Z,79.67
2018-04-25T01:00:20.357Z,79.86
2018-04-25T01:01:29.195Z,79.86
2018-04-25T01:02:38.083Z,80.53
2018-04-25T01:03:46.911Z,81.01
2018-04-25T01:04:55.746Z,80.43
2018-04-25T01:06:04.858Z,80.53
2018-04-25T01:07:13.970Z,81.1
2018-04-25T01:08:23.126Z,81.01
2018-04-25T01:09:31.962Z,81.2
2018-04-25T01:10:40.796Z,81.86
2018-04-25T01:11:49.673Z,82.06
2018-04-25T01:12:58.460Z,81.77
2018-04-25T01:14:07.343Z,82.06
2018-04-25T01:15:16.184Z,82.15
2018-04-25T01:16:25.287Z,82.15
2018-04-25T01:17:34.121Z,82.15
2018-04-25T01:18:42.953Z,81.77
2018-04-25T01:19:52.037Z,82.15
2018-04-25T01:21:00.877Z,81.77
2018-04-25T01:22:09.985Z,81.96
2018-04-25T01:23:18.819Z,81.77
2018-04-25T01:24:27.651Z,82.24
2018-04-25T01:25:37.012Z,82.43
2018-04-25T01:26:45.850Z,82.15
2018-04-25T01:27:54.680Z,82.06
2018-04-25T01:29:03.514Z,81.96
2018-04-25T01:30:12.346Z,82.24
2018-04-25T01:31:21.337Z,81.96
2018-04-25T01:32:30.169Z,81.2
2018-04-25T01:33:39.000Z,81.48
2018-04-25T01:34:48.112Z,81.48
2018-04-25T01:35:57.224Z,81.38
2018-04-25T01:37:06.638Z,81.2
2018-04-25T01:38:15.476Z,81.01
2018-04-25T01:39:24.591Z,81.29
2018-04-25T01:40:33.426Z,81.2
2018-04-25T01:41:42.537Z,81.38
2018-04-25T01:42:51.696Z,81.48
2018-04-25T01:44:00.803Z,81.29
2018-04-25T01:45:09.637Z,81.2
2018-04-25T01:46:18.472Z,81.1
2018-04-25T01:47:27.307Z,81.48
2018-04-25T01:48:36.299Z,81.01
2018-04-25T01:49:45.122Z,81.1
2018-04-25T01:50:54.233Z,81.2
2018-04-25T01:52:03.066Z,81.29
2018-04-25T01:53:12.174Z,81.01
2018-04-25T01:54:21.280Z,81.2
2018-04-25T01:55:30.115Z,81.2
2018-04-25T01:56:39.228Z,81.1
2018-04-25T01:57:48.336Z,81.29
2018-04-25T01:58:57.170Z,81.29
2018-04-25T02:00:06.434Z,80.81
2018-04-25T02:01:15.271Z,81.1
2018-04-25T02:02:24.391Z,81.1
2018-04-25T02:03:33.222Z,81.01
2018-04-25T02:04:42.881Z,81.1
2018-04-25T02:05:51.916Z,81.29
2018-04-25T02:07:01.025Z,81.2
2018-04-25T02:08:09.862Z,81.1
2018-04-25T02:09:18.973Z,81.33
2018-04-25T02:10:27.807Z,81.04
2018-04-25T02:11:37.045Z,81.24
2018-04-25T02:12:45.874Z,80.95
2018-04-25T02:13:54.988Z,81.33
2018-04-25T02:15:04.097Z,81.33
2018-04-25T02:16:12.933Z,81.33
2018-04-25T02:17:22.097Z,80.85
2018-04-25T02:18:31.204Z,81.43
2018-04-25T02:19:40.036Z,81.24
2018-04-25T02:20:48.870Z,81.24
2018-04-25T02:21:57.704Z,81.24
2018-04-25T02:23:06.837Z,81.24
2018-04-25T02:24:16.221Z,81.24
2018-04-25T02:25:25.057Z,81.04
2018-04-25T02:26:34.165Z,81.33
2018-04-25T02:27:43.274Z,81.52
2018-04-25T02:28:52.210Z,81.62
2018-04-25T02:30:01.246Z,81.62
2018-04-25T02:31:10.358Z,81.33
2018-04-25T02:32:19.746Z,81.33
2018-04-25T02:33:28.586Z,81.33
2018-04-25T02:34:38.080Z,81.43
2018-04-25T02:35:46.919Z,81.71
2018-04-25T02:36:55.750Z,81.52
2018-04-25T02:38:04.581Z,81.62
2018-04-25T02:39:13.689Z,81.47
2018-04-25T02:40:22.672Z,82.14
2018-04-25T02:41:32.058Z,82.04
2018-04-25T02:42:41.171Z,81.95
2018-04-25T02:43:50.004Z,82.04
2018-04-25T02:44:59.113Z,82.23
2018-04-25T02:46:08.148Z,81.95
2018-04-25T02:47:16.993Z,82.14
2018-04-25T02:48:26.205Z,81.95
2018-04-25T02:49:35.325Z,81.95
2018-04-25T02:50:44.439Z,82.04
2018-04-25T02:51:53.849Z,82.04
2018-04-25T02:53:02.960Z,81.95
2018-04-25T02:54:12.347Z,82.32
2018-04-25T02:55:21.178Z,81.95
2018-04-25T02:56:30.009Z,82.42
2018-04-25T02:57:38.895Z,82.04
2018-04-25T02:58:47.795Z,81.95
2018-04-25T02:59:57.596Z,82.04
2018-04-25T03:01:06.490Z,81.76
2018-04-25T03:02:15.616Z,81.85
2018-04-25T03:03:25.171Z,82.32
2018-04-25T03:04:34.007Z,82.42
2018-04-25T03:05:43.180Z,82.23
2018-04-25T03:06:52.291Z,82.14
2018-04-25T03:08:01.122Z,82.32
2018-04-25T03:09:10.169Z,82.32
2018-04-25T03:10:19.006Z,82.32
2018-04-25T03:11:28.120Z,82.32
2018-04-25T03:12:36.948Z,82.23
2018-04-25T03:13:46.057Z,82.32
2018-04-25T03:14:55.420Z,82.52
2018-04-25T03:16:04.255Z,82.81
2018-04-25T03:17:13.367Z,82.81
2018-04-25T03:18:22.201Z,82.9
2018-04-25T03:19:31.029Z,82.81
2018-04-25T03:20:40.260Z,82.81
2018-04-25T03:21:49.381Z,82.81
2018-04-25T03:22:58.212Z,82.81
2018-04-25T03:24:07.323Z,83.18
2018-04-25T03:25:16.438Z,82.9
2018-04-25T03:26:25.746Z,83
2018-04-25T03:27:34.854Z,83.67
2018-04-25T03:28:43.688Z,83.67
2018-04-25T03:29:52.530Z,83.7
2018-04-25T03:31:01.370Z,83.7
2018-04-25T03:32:10.317Z,83.67
2018-04-25T03:33:19.151Z,84.09
2018-04-25T03:34:28.262Z,83.95
2018-04-25T03:35:37.094Z,83.95
2018-04-25T03:36:45.930Z,84.05
2018-04-25T03:37:55.243Z,83.95
2018-04-25T03:39:04.078Z,83.76
2018-04-25T03:40:12.909Z,83.67
2018-04-25T03:41:21.744Z,83.86
2018-04-25T03:42:30.856Z,84.05
2018-04-25T03:43:39.793Z,84.05
2018-04-25T03:44:48.634Z,83.95
2018-04-25T03:45:57.469Z,84.09
2018-04-25T03:47:06.303Z,84.14
2018-04-25T03:48:15.137Z,84.05
2018-04-25T03:49:24.122Z,84.05
2018-04-25T03:50:32.956Z,84.19
2018-04-25T03:51:41.793Z,84.14
2018-04-25T03:52:50.631Z,84.23
2018-04-25T03:53:59.742Z,84.14
2018-04-25T03:55:08.675Z,84.23
2018-04-25T03:56:17.509Z,84.23
2018-04-25T03:57:26.343Z,84.52
2018-04-25T03:58:35.455Z,84.43
2018-04-25T03:59:44.288Z,84.56
2018-04-25T04:00:53.171Z,84.28
2018-04-25T04:02:02.056Z,84.09
2018-04-25T04:03:11.166Z,84.43
2018-04-25T04:04:20.001Z,84.23
2018-04-25T04:05:28.839Z,84.19
2018-04-25T04:06:37.724Z,84.43
2018-04-25T04:07:47.109Z,84.19
2018-04-25T04:08:55.946Z,84.28
2018-04-25T04:10:04.779Z,84.76
2018-04-25T04:11:13.613Z,84.47
2018-04-25T04:12:22.649Z,84.76
2018-04-25T04:13:31.484Z,84.56
2018-04-25T04:14:40.318Z,84.66
2018-04-25T04:15:49.156Z,84.76
2018-04-25T04:16:57.989Z,84.76
2018-04-25T04:18:07.100Z,84.76
2018-04-25T04:19:16.224Z,84.85
2018-04-25T04:20:25.064Z,85.05
2018-04-25T04:21:33.904Z,85.24
2018-04-25T04:22:42.728Z,85.42
2018-04-25T04:23:51.663Z,85.05
2018-04-25T04:25:00.500Z,85.52
2018-04-25T04:26:09.337Z,86.1
2018-04-25T04:27:18.170Z,85.81
2018-04-25T04:28:27.004Z,85.81
2018-04-25T04:29:35.937Z,86.19
2018-04-25T04:30:44.770Z,86.29
2018-04-25T04:31:53.883Z,86.67
2018-04-25T04:33:02.719Z,86.76
2018-04-25T04:34:11.555Z,86.76
2018-04-25T04:35:20.394Z,86.57
2018-04-25T04:36:29.504Z,87.15
2018-04-25T04:37:38.623Z,86.86
2018-04-25T04:38:47.456Z,87.43
2018-04-25T04:39:56.293Z,87.05
2018-04-25T04:41:05.832Z,87.53
2018-04-25T04:42:14.940Z,87.43
2018-04-25T04:43:23.779Z,87.24
2018-04-25T04:44:32.614Z,87.91
2018-04-25T04:45:41.453Z,87.43
2018-04-25T04:46:50.359Z,87.72
2018-04-25T04:47:59.549Z,87.82
2018-04-25T04:49:08.435Z,87.72
2018-04-25T04:50:17.271Z,87.62
2018-04-25T04:51:26.383Z,88.1
2018-04-25T04:52:35.221Z,87.62
2018-04-25T04:53:44.060Z,87.53
2018-04-25T04:54:53.178Z,88.58
2018-04-25T04:56:02.013Z,88.29
2018-04-25T04:57:10.848Z,88.68
2018-04-25T04:58:19.681Z,88.87
2018-04-25T04:59:28.519Z,88.96
2018-04-25T05:00:37.627Z,88.96
2018-04-25T05:01:46.864Z,89.15
2018-04-25T05:02:55.699Z,88.96
2018-04-25T05:04:04.818Z,88.96
2018-04-25T05:05:13.651Z,89.44
2018-04-25T05:06:22.483Z,89.25
2018-04-25T05:07:31.317Z,89.82
2018-04-25T05:08:40.622Z,89.63
2018-04-25T05:09:49.875Z,89.63
2018-04-25T05:10:58.711Z,90.01
2018-04-25T05:12:07.545Z,89.73
2018-04-25T05:13:16.666Z,89.73
2018-04-25T05:14:25.495Z,89.15
2018-04-25T05:15:34.336Z,89.25
2018-04-25T05:16:43.174Z,90.2
2018-04-25T05:17:52.483Z,90.01
2018-04-25T05:19:01.320Z,90.11
2018-04-25T05:20:10.438Z,90.11
2018-04-25T05:21:19.277Z,90.68
2018-04-25T05:22:28.387Z,90.49
2018-04-25T05:23:37.472Z,90.49
2018-04-25T05:24:46.341Z,90.39
2018-04-25T05:25:55.555Z,90.59
2018-04-25T05:27:04.388Z,90.49
2018-04-25T05:28:13.510Z,90.78
2018-04-25T05:29:22.921Z,91.45
2018-04-25T05:30:31.756Z,91.74
2018-04-25T05:31:41.149Z,91.93
2018-04-25T05:32:50.260Z,92.02
2018-04-25T05:33:59.096Z,91.93
2018-04-25T05:35:08.211Z,91.83
2018-04-25T05:36:17.044Z,92.11
2018-04-25T05:37:25.881Z,92.07
2018-04-25T05:38:34.770Z,92.21
2018-04-25T05:39:43.552Z,92.35
2018-04-25T05:40:52.635Z,92.4
2018-04-25T05:42:01.748Z,92.5
2018-04-25T05:43:10.617Z,92.02
2018-04-25T05:44:19.451Z,90.39
2018-04-25T05:45:28.288Z,88.58
2018-04-25T05:46:37.174Z,86.76
2018-04-25T05:47:46.286Z,85.38
2018-04-25T05:48:55.393Z,83.67
2018-04-25T05:50:04.514Z,82.71
2018-04-25T05:51:13.629Z,82.32
2018-04-25T05:52:23.166Z,81.85
2018-04-25T05:53:32.004Z,81.76
2018-04-25T05:54:40.836Z,80.51
2018-04-25T05:55:50.226Z,80.32
2018-04-25T05:56:59.060Z,80.61
2018-04-25T05:58:08.044Z,79.27
2018-04-25T05:59:16.878Z,78.85
2018-04-25T06:00:25.711Z,78.37
2018-04-25T06:01:34.825Z,78.37
2018-04-25T06:02:43.947Z,78.18
2018-04-25T06:03:53.085Z,78.18
2018-04-25T06:05:01.913Z,77.61
2018-04-25T06:06:10.748Z,77.7
2018-04-25T06:07:19.596Z,77.42
2018-04-25T06:08:28.417Z,76.46
2018-04-25T06:09:37.405Z,76.94
2018-04-25T06:10:46.239Z,76.75
2018-04-25T06:11:55.073Z,76.56
2018-04-25T06:13:04.181Z,76.94
2018-04-25T06:14:13.021Z,76.94
2018-04-25T06:15:22.152Z,77.61
2018-04-25T06:16:31.262Z,77.61
2018-04-25T06:17:40.097Z,79.14
2018-04-25T06:18:48.933Z,79.8
2018-04-25T06:19:58.041Z,80.28
2018-04-25T06:21:07.208Z,80.38
2018-04-25T06:22:16.015Z,80.47
2018-04-25T06:23:25.122Z,81.04
2018-04-25T06:24:33.966Z,80.57
2018-04-25T06:25:42.792Z,80.28
2018-04-25T06:26:51.777Z,80.47
2018-04-25T06:28:00.611Z,80.19
2018-04-25T06:29:09.444Z,80.38
2018-04-25T06:30:18.554Z,80.41
2018-04-25T06:31:27.391Z,80.85
2018-04-25T06:32:37.161Z,80.99
2018-04-25T06:33:46.269Z,82.04
2018-04-25T06:34:55.103Z,82.14
2018-04-25T06:36:03.938Z,83.47
2018-04-25T06:37:12.774Z,84.52
2018-04-25T06:38:21.606Z,84.43
2018-04-25T06:39:30.464Z,84.14
2018-04-25T06:40:39.655Z,84.23
2018-04-25T06:41:48.763Z,84.52
2018-04-25T06:42:57.878Z,85.19
2018-04-25T06:44:06.821Z,85.1
2018-04-25T06:45:15.645Z,85.77
2018-04-25T06:46:24.759Z,86.72
2018-04-25T06:47:33.594Z,86.76
2018-04-25T06:48:42.702Z,86.53
2018-04-25T06:49:51.837Z,86.76
2018-04-25T06:51:00.673Z,87.01
2018-04-25T06:52:09.507Z,87.58
2018-04-25T06:53:18.619Z,87.53
2018-04-25T06:54:27.457Z,87.77
2018-04-25T06:55:36.392Z,89.06
2018-04-25T06:56:45.312Z,89.53
2018-04-25T06:57:54.061Z,89.15
2018-04-25T06:59:02.896Z,89.63
2018-04-25T07:00:11.734Z,89.25
2018-04-25T07:01:20.867Z,89.53
2018-04-25T07:02:29.702Z,89.63
2018-04-25T07:03:38.536Z,89.73
2018-04-25T07:04:47.370Z,90.2
2018-04-25T07:05:56.207Z,90.01
2018-04-25T07:07:05.194Z,90.78
2018-04-25T07:08:14.038Z,90.3
2018-04-25T07:09:23.876Z,90.39
2018-04-25T07:10:32.888Z,91.83
2018-04-25T07:11:42.020Z,91.35
2018-04-25T07:12:50.891Z,91.54
2018-04-25T07:14:00.093Z,91.83
2018-04-25T07:15:08.836Z,92.5
2018-04-25T07:16:17.946Z,92.11
2018-04-25T07:17:26.785Z,92.4
2018-04-25T07:18:35.997Z,93.36
2018-04-25T07:19:44.833Z,93.26
2018-04-25T07:20:54.219Z,93.07
2018-04-25T07:22:03.334Z,93.36
2018-04-25T07:23:12.172Z,93.84
2018-04-25T07:24:21.379Z,93.74
2018-04-25T07:25:30.216Z,93.74
2018-04-25T07:26:39.324Z,93.55
2018-04-25T07:27:48.159Z,94.17
2018-04-25T07:28:56.993Z,94.17
2018-04-25T07:30:05.878Z,93.98
2018-04-25T07:31:14.717Z,94.26
2018-04-25T07:32:23.834Z,94.93
2018-04-25T07:33:32.665Z,94.93
2018-04-25T07:34:41.502Z,95.12
2018-04-25T07:35:50.442Z,95.22
2018-04-25T07:36:59.552Z,95.41
2018-04-25T07:38:08.387Z,96.08
2018-04-25T07:39:17.502Z,96.08
2018-04-25T07:40:26.340Z,96.37
2018-04-25T07:41:35.277Z,96.27
2018-04-25T07:42:44.472Z,95.75
2018-04-25T07:43:53.302Z,95.79
2018-04-25T07:45:02.200Z,96.37
2018-04-25T07:46:10.975Z,96.37
2018-04-25T07:47:19.864Z,96.18
2018-04-25T07:48:28.973Z,96.18
2018-04-25T07:49:37.807Z,96.37
2018-04-25T07:50:46.919Z,97.13
2018-04-25T07:51:56.032Z,96.94
2018-04-25T07:53:04.975Z,96.94
2018-04-25T07:54:13.807Z,96.75
2018-04-25T07:55:22.643Z,96.32
2018-04-25T07:56:31.484Z,96.32
2018-04-25T07:57:40.332Z,96.18
2018-04-25T07:58:49.750Z,96.13
2018-04-25T07:59:58.583Z,96.8
2018-04-25T08:01:07.423Z,97.08
2018-04-25T08:02:16.539Z,96.99
2018-04-25T08:03:25.657Z,96.8
2018-04-25T08:04:34.594Z,96.99
2018-04-25T08:05:43.435Z,97.37
2018-04-25T08:06:52.267Z,97.85
2018-04-25T08:08:01.202Z,97.85
2018-04-25T08:09:10.319Z,97.94
2018-04-25T08:10:19.579Z,98.13
2018-04-25T08:11:28.710Z,98.61
2018-04-25T08:12:37.547Z,97.94
2018-04-25T08:13:46.383Z,98.85
2018-04-25T08:14:55.220Z,98.08
2018-04-25T08:16:04.053Z,98.08
2018-04-25T08:17:12.890Z,97.8
2018-04-25T08:18:21.724Z,98.37
2018-04-25T08:19:30.560Z,98.18
2018-04-25T08:20:39.671Z,97.52
2018-04-25T08:21:48.558Z,97.89
2018-04-25T08:22:57.670Z,97.85
2018-04-25T08:24:06.504Z,97.94
2018-04-25T08:25:15.350Z,97.94
2018-04-25T08:26:24.453Z,97.94
2018-04-25T08:27:33.393Z,98.13
2018-04-25T08:28:42.786Z,97.85
2018-04-25T08:29:51.621Z,98.61
2018-04-25T08:31:00.732Z,97.85
2018-04-25T08:32:09.570Z,97.99
2018-04-25T08:33:18.880Z,97.89
2018-04-25T08:34:28.143Z,97.71
2018-04-25T08:35:37.256Z,98.47
2018-04-25T08:36:46.088Z,98.94
2018-04-25T08:37:54.920Z,98.66
2018-04-25T08:39:04.038Z,98.94
2018-04-25T08:40:12.870Z,99.13
2018-04-25T08:41:21.710Z,99.04
2018-04-25T08:42:30.545Z,99.8
2018-04-25T08:43:39.381Z,99.52
2018-04-25T08:44:48.594Z,98.37
2018-04-25T08:45:57.302Z,97.99
2018-04-25T08:47:06.139Z,97.42
2018-04-25T08:48:15.256Z,98.27
2018-04-25T08:49:24.090Z,96.75
2018-04-25T08:50:33.025Z,97.61
2018-04-25T08:51:41.858Z,96.66
2018-04-25T08:52:50.971Z,96.66
2018-04-25T08:53:59.813Z,96.75
2018-04-25T08:55:08.642Z,96.94
2018-04-25T08:56:17.727Z,96.75
2018-04-25T08:57:26.598Z,96.66
2018-04-25T08:58:35.671Z,96.66
2018-04-25T08:59:44.506Z,97.61
2018-04-25T09:00:53.338Z,97.75
2018-04-25T09:02:02.755Z,97.66
2018-04-25T09:03:11.866Z,97.85
2018-04-25T09:04:20.703Z,97.56
2018-04-25T09:05:29.536Z,98.42
2018-04-25T09:06:38.917Z,98.9
2018-04-25T09:07:47.750Z,98.32
2018-04-25T09:08:56.859Z,98.7
2018-04-25T09:10:05.696Z,98.51
2018-04-25T09:11:14.805Z,98.51
2018-04-25T09:12:23.911Z,98.8
2018-04-25T09:13:32.752Z,98.8
2018-04-25T09:14:41.579Z,98.42
2018-04-25T09:15:50.886Z,98.51
2018-04-25T09:16:59.721Z,98.61
2018-04-25T09:18:08.830Z,98.22
2018-04-25T09:19:17.865Z,98.32
2018-04-25T09:20:26.847Z,98.22
2018-04-25T09:21:35.559Z,98.8
2018-04-25T09:22:44.661Z,98.75
2018-04-25T09:23:53.496Z,99.27
2018-04-25T09:25:02.738Z,99.51
2018-04-25T09:26:12.122Z,99.99
2018-04-25T09:27:21.233Z,99.99
2018-04-25T09:28:30.067Z,99.8
2018-04-25T09:29:38.900Z,99.99
2018-04-25T09:30:48.117Z,99.99
2018-04-25T09:31:57.216Z,99.99
2018-04-25T09:33:06.054Z,99.99
2018-04-25T09:34:15.165Z,99.99
2018-04-25T09:35:23.998Z,99.99
2018-04-25T09:36:32.883Z,99.99
2018-04-25T09:37:41.985Z,99.75
2018-04-25T09:38:50.817Z,98.79
2018-04-25T09:39:59.652Z,98.36
2018-04-25T09:41:08.487Z,98.13
2018-04-25T09:42:17.768Z,98.32
2018-04-25T09:43:26.598Z,98.22
2018-04-25T09:44:35.752Z,97.46
2018-04-25T09:45:44.586Z,97.46
2018-04-25T09:46:53.787Z,97.27
2018-04-25T09:48:02.719Z,97.56
2018-04-25T09:49:11.832Z,97.36
2018-04-25T09:50:20.665Z,98.22
2018-04-25T09:51:29.501Z,97.36
2018-04-25T09:52:38.607Z,97.56
2018-04-25T09:53:47.748Z,97.56
2018-04-25T09:54:56.618Z,97.27
2018-04-25T09:56:05.447Z,97.46
2018-04-25T09:57:14.281Z,97.27
2018-04-25T09:58:23.114Z,97.56
2018-04-25T09:59:31.952Z,97.56
2018-04-25T10:00:40.781Z,97.94
2018-04-25T10:01:49.614Z,98.13
2018-04-25T10:02:58.735Z,98.41
2018-04-25T10:04:07.884Z,96.98
2018-04-25T10:05:16.879Z,96.03
2018-04-25T10:06:25.712Z,95.12
2018-04-25T10:07:34.545Z,94.56
2018-04-25T10:08:43.380Z,95.27
2018-04-25T10:09:52.214Z,94.79
2018-04-25T10:11:01.099Z,94.27
2018-04-25T10:12:09.932Z,94.17
2018-04-25T10:13:18.764Z,94.37
2018-04-25T10:14:27.597Z,94.46
2018-04-25T10:15:36.431Z,94.65
2018-04-25T10:16:45.471Z,93.98
2018-04-25T10:17:54.302Z,93.79
2018-04-25T10:19:03.138Z,93.98
2018-04-25T10:20:12.248Z,93.89
2018-04-25T10:21:21.354Z,93.98
2018-04-25T10:22:30.486Z,94.27
2018-04-25T10:23:39.593Z,94.46
2018-04-25T10:24:48.700Z,94.08
2018-04-25T10:25:57.808Z,94.27
2018-04-25T10:27:06.640Z,94.08
2018-04-25T10:28:15.725Z,95.27
2018-04-25T10:29:24.558Z,94.08
2018-04-25T10:30:33.667Z,95.12
2018-04-25T10:31:42.778Z,94.84
2018-04-25T10:32:52.161Z,94.65
2018-04-25T10:34:01.198Z,95.41
2018-04-25T10:35:10.875Z,95.12
2018-04-25T10:36:19.706Z,95.22
2018-04-25T10:37:28.541Z,95.32
2018-04-25T10:38:37.373Z,95.36
2018-04-25T10:39:46.674Z,95.46
2018-04-25T10:40:55.512Z,95.36
2018-04-25T10:42:04.344Z,95.27
2018-04-25T10:43:13.177Z,95.36
2018-04-25T10:44:22.011Z,95.27
2018-04-25T10:45:30.946Z,95.27
2018-04-25T10:46:40.075Z,95.56
2018-04-25T10:47:48.907Z,95.56
2018-04-25T10:48:57.743Z,96.32
2018-04-25T10:50:06.863Z,96.65
2018-04-25T10:51:15.844Z,96.65
2018-04-25T10:52:24.678Z,96.65
2018-04-25T10:53:33.802Z,97.13
2018-04-25T10:54:42.638Z,96.65
2018-04-25T10:55:51.471Z,97.32
2018-04-25T10:57:00.889Z,97.32
2018-04-25T10:58:09.724Z,96.56
2018-04-25T10:59:18.562Z,96.84
2018-04-25T11:00:27.395Z,97.51
2018-04-25T11:01:36.228Z,97.32
2018-04-25T11:02:45.616Z,97.8
2018-04-25T11:03:54.725Z,97.51
2018-04-25T11:05:03.563Z,97.8
2018-04-25T11:06:12.397Z,97.89
2018-04-25T11:07:21.312Z,97.7
2018-04-25T11:08:30.215Z,97.61
2018-04-25T11:09:39.329Z,97.7
2018-04-25T11:10:48.438Z,97.7
2018-04-25T11:11:57.552Z,97.89
2018-04-25T11:13:06.387Z,97.89
2018-04-25T11:14:15.269Z,97.8
2018-04-25T11:15:24.102Z,97.7
2018-04-25T11:16:32.942Z,97.7
2018-04-25T11:17:42.332Z,97.61
2018-04-25T11:18:51.165Z,97.7
2018-04-25T11:20:00.279Z,97.85
2018-04-25T11:21:09.388Z,97.37
2018-04-25T11:22:18.495Z,97.66
2018-04-25T11:23:27.329Z,97.61
2018-04-25T11:24:36.166Z,98.56
2018-04-25T11:25:45.375Z,98.36
2018-04-25T11:26:54.211Z,97.94
2018-04-25T11:28:03.051Z,97.56
2018-04-25T11:29:11.884Z,98.51
2018-04-25T11:30:20.720Z,98.32
2018-04-25T11:31:29.708Z,98.61
2018-04-25T11:32:38.540Z,97.75
2018-04-25T11:33:47.372Z,98.65
2018-04-25T11:34:56.212Z,98.46
2018-04-25T11:36:05.047Z,99.13
2018-04-25T11:37:13.879Z,99.41
2018-04-25T11:38:22.716Z,99.66
2018-04-25T11:39:32.099Z,99.51
2018-04-25T11:40:40.943Z,99.37
2018-04-25T11:41:49.794Z,99.51
2018-04-25T11:42:59.205Z,99.22
2018-04-25T11:44:08.038Z,99.89
2018-04-25T11:45:16.872Z,99.8
2018-04-25T11:46:25.707Z,99.22
2018-04-25T11:47:34.538Z,99.41
2018-04-25T11:48:43.655Z,99.51
2018-04-25T11:49:52.489Z,99.8
2018-04-25T11:51:01.601Z,99.13
2018-04-25T11:52:10.436Z,99.51
2018-04-25T11:53:19.270Z,99.41
2018-04-25T11:54:29.228Z,99.41
2018-04-25T11:55:38.064Z,99.51
2018-04-25T11:56:46.898Z,99.32
2018-04-25T11:57:55.737Z,99.51
2018-04-25T11:59:04.849Z,99.22
2018-04-25T12:00:13.787Z,98.85
2018-04-25T12:01:22.621Z,98.94
2018-04-25T12:02:31.460Z,98.56
2018-04-25T12:03:40.573Z,98.75
2018-04-25T12:04:49.683Z,99.13
2018-04-25T12:05:58.516Z,99.6
2018-04-25T12:07:07.351Z,99.51
2018-04-25T12:08:16.468Z,99.51
2018-04-25T12:09:25.299Z,99.41
2018-04-25T12:10:34.133Z,98.13
2018-04-25T12:11:43.224Z,98.7
2018-04-25T12:12:52.059Z,98.7
2018-04-25T12:14:00.893Z,98.13
2018-04-25T12:15:09.727Z,97.08
2018-04-25T12:16:18.844Z,96.03
2018-04-25T12:17:27.681Z,94.7
2018-04-25T12:18:36.548Z,93.84
2018-04-25T12:19:45.660Z,93.41
2018-04-25T12:20:54.493Z,92.18
2018-04-25T12:22:03.376Z,90.94
2018-04-25T12:23:12.263Z,89.51
2018-04-25T12:24:21.407Z,88.84
2018-04-25T12:25:30.202Z,88.84
2018-04-25T12:26:39.313Z,89.61
2018-04-25T12:27:48.148Z,89.46
2018-04-25T12:28:57.482Z,89.26
2018-04-25T12:30:06.870Z,89.17
2018-04-25T12:31:15.979Z,89.55
2018-04-25T12:32:24.813Z,90.17
2018-04-25T12:33:33.647Z,90.17
2018-04-25T12:34:42.853Z,90.17
2018-04-25T12:35:51.725Z,89.98
2018-04-25T12:37:00.795Z,89.7
2018-04-25T12:38:09.625Z,90.65
2018-04-25T12:39:18.458Z,90.36
2018-04-25T12:40:27.620Z,90.08
2018-04-25T12:41:36.477Z,90.17
2018-04-25T12:42:45.639Z,90.08
2018-04-25T12:43:54.471Z,89.61
2018-04-25T12:45:03.316Z,89.32
2018-04-25T12:46:12.205Z,89.98
2018-04-25T12:47:21.151Z,89.89
2018-04-25T12:48:30.565Z,89.51
2018-04-25T12:49:39.675Z,89.79
2018-04-25T12:50:48.788Z,89.98
2018-04-25T12:51:57.920Z,89.22
2018-04-25T12:53:06.754Z,89.13
2018-04-25T12:54:15.867Z,89.65
2018-04-25T12:55:24.703Z,89.26
2018-04-25T12:56:33.813Z,89.65
2018-04-25T12:57:42.697Z,89.75
2018-04-25T12:58:51.530Z,90.03
2018-04-25T13:00:00.373Z,90.31
2018-04-25T13:01:09.755Z,90.22
2018-04-25T13:02:18.592Z,90.6
2018-04-25T13:03:28.136Z,91.5
2018-04-25T13:04:36.974Z,91.36
2018-04-25T13:05:46.087Z,91.55
2018-04-25T13:06:55.189Z,92.13
2018-04-25T13:08:04.024Z,92.5
2018-04-25T13:09:13.260Z,91.55
2018-04-25T13:10:22.095Z,93.32
2018-04-25T13:11:30.930Z,93.51
2018-04-25T13:12:39.766Z,92.65
2018-04-25T13:13:48.599Z,94.37
2018-04-25T13:14:57.538Z,93.6
2018-04-25T13:16:06.366Z,94.46
2018-04-25T13:17:15.208Z,94.79
2018-04-25T13:18:24.319Z,95.22
2018-04-25T13:19:33.153Z,95.65
2018-04-25T13:20:42.139Z,95.84
2018-04-25T13:21:51.251Z,95.84
2018-04-25T13:23:00.086Z,95.61
2018-04-25T13:24:09.203Z,95.65
2018-04-25T13:25:18.040Z,95.56
2018-04-25T13:26:27.276Z,95.94
2018-04-25T13:27:36.388Z,96.13
2018-04-25T13:28:45.786Z,95.94
2018-04-25T13:29:54.951Z,96.8
2018-04-25T13:31:04.065Z,96.89
2018-04-25T13:32:12.954Z,96.89
2018-04-25T13:33:22.067Z,96.8
2018-04-25T13:34:30.905Z,96.46
2018-04-25T13:35:39.740Z,96.7
2018-04-25T13:36:48.580Z,97.46
2018-04-25T13:37:57.690Z,96.8
2018-04-25T13:39:06.527Z,96.98
2018-04-25T13:40:15.376Z,96.94
2018-04-25T13:41:24.202Z,96.84
2018-04-25T13:42:33.312Z,97.71
2018-04-25T13:43:42.253Z,97.51
2018-04-25T13:44:51.103Z,98.08
2018-04-25T13:46:00.212Z,97.8
2018-04-25T13:47:09.055Z,97.61
2018-04-25T13:48:17.893Z,96.84
2018-04-25T13:49:26.729Z,96.75
2018-04-25T13:50:35.566Z,97.22
2018-04-25T13:51:44.673Z,96.98
2018-04-25T13:52:53.789Z,97.13
2018-04-25T13:54:02.627Z,97.42
2018-04-25T13:55:11.563Z,97.32
2018-04-25T13:56:20.413Z,97.61
2018-04-25T13:57:29.256Z,97.42
2018-04-25T13:58:38.092Z,98.18
2018-04-25T13:59:46.930Z,97.42
2018-04-25T14:00:56.241Z,97.71
2018-04-25T14:02:05.075Z,97.8
2018-04-25T14:03:13.909Z,97.61
2018-04-25T14:04:22.745Z,97.61
2018-04-25T14:05:31.583Z,97.8
2018-04-25T14:06:40.522Z,98.56
2018-04-25T14:07:49.633Z,98.7
2018-04-25T14:08:58.475Z,98.7
2018-04-25T14:10:07.303Z,98.61
2018-04-25T14:11:16.138Z,98.51
2018-04-25T14:12:25.073Z,99.56
2018-04-25T14:13:33.909Z,99.18
2018-04-25T14:14:42.744Z,99.56
2018-04-25T14:15:51.581Z,99.46
2018-04-25T14:17:00.693Z,99.37
2018-04-25T14:18:10.101Z,98.61
2018-04-25T14:19:18.967Z,99.27
2018-04-25T14:20:28.239Z,98.7
2018-04-25T14:21:37.127Z,98.13
2018-04-25T14:22:45.966Z,98.8
2018-04-25T14:23:55.118Z,98.36
2018-04-25T14:25:03.953Z,98.22
2018-04-25T14:26:12.788Z,97.61
2018-04-25T14:27:21.621Z,98.36
2018-04-25T14:28:30.457Z,97.61
2018-04-25T14:29:39.489Z,97.41
2018-04-25T14:30:48.952Z,97.41
2018-04-25T14:31:58.070Z,98.18
2018-04-25T14:33:07.179Z,98.18
2018-04-25T14:34:16.012Z,98.18
2018-04-25T14:35:24.947Z,97.41
2018-04-25T14:36:33.782Z,97.13
2018-04-25T14:37:42.616Z,98.08
2018-04-25T14:38:51.781Z,98.08
2018-04-25T14:40:00.685Z,97.61
2018-04-25T14:41:09.741Z,97.8
2018-04-25T14:42:18.624Z,96.94
2018-04-25T14:43:27.580Z,97.03
2018-04-25T14:44:36.537Z,98.36
2018-04-25T14:45:45.450Z,98.08
2018-04-25T14:46:54.384Z,97.61
2018-04-25T14:48:03.221Z,98.08
2018-04-25T14:49:12.327Z,97.41
2018-04-25T14:50:21.440Z,97.27
2018-04-25T14:51:30.276Z,98.03